FNLU/LAD METAR and TAF weather

Enter ICAO airport designator
Station Type Date Time Source
FNLU METAR 2018/12/10 15:00 UTC NOAA

FNLU 101500Z 26006KT 9999 FEW020 BKN080 27/24 Q1012 NOSIG


Station Type Date Time Source
FNLU Decoded METAR 2018/12/10 15:00 UTC NOAA

Luanda, Angola (FNLU) 08-51S 013-14E 70M
Dec 10, 2018 - 10:00 AM EST / 2018.12.10 1500 UTC
Wind: from the W (260 degrees) at 7 MPH (6 KT):0
Visibility: greater than 7 mile(s):0
Sky conditions: mostly cloudy
Temperature: 80 F (27 C)
Dew Point: 75 F (24 C)
Relative Humidity: 83%
Pressure (altimeter): 29.88 in. Hg (1012 hPa)
ob: FNLU 101500Z 26006KT 9999 FEW020 BKN080 27/24 Q1012 NOSIG
cycle: 15

Station Type Date Time Source
FNLU TAF 2018/12/10 18:46 UTC NOAA

TAF FNLU 101530Z 1018/1124 22007KT 9999 FEW020 BKN070
BECMG 1100/1102 VRB03KT 8000 SCT018 BKN070
BECMG 1112/1114 14004KT 9999 FEW020 BKN080
TEMPO 1114/1118 24007KT 9999 FEW020 FEW023TCU BKN070


Example: see airport list